createdAt,value
2017-10-03T00:01:09.186Z,8.20
2017-10-03T00:03:36.737Z,8.53
2017-10-03T00:06:04.242Z,7.60
2017-10-03T00:08:31.758Z,8.20
2017-10-03T00:10:59.994Z,8.60
2017-10-03T00:13:27.598Z,9.90
2017-10-03T00:15:55.074Z,9.50
2017-10-03T00:18:23.311Z,8.40
2017-10-03T00:20:50.798Z,9.17
2017-10-03T00:23:19.069Z,8.77
2017-10-03T00:25:47.309Z,8.93
2017-10-03T00:28:14.806Z,9.03
2017-10-03T00:30:43.078Z,9.03
2017-10-03T00:33:11.358Z,10.07
2017-10-03T00:35:39.621Z,11.33
2017-10-03T00:38:07.190Z,9.70
2017-10-03T00:40:34.754Z,10.43
2017-10-03T00:43:03.019Z,10.33
2017-10-03T00:45:30.498Z,10.53
2017-10-03T00:47:58.744Z,11.10
2017-10-03T00:50:28.670Z,9.80
2017-10-03T00:52:58.581Z,10.13
2017-10-03T00:55:26.055Z,9.50
2017-10-03T00:57:54.309Z,9.00
2017-10-03T01:00:21.785Z,10.30
2017-10-03T01:02:50.035Z,9.30
2017-10-03T01:05:17.623Z,8.90
2017-10-03T01:07:45.181Z,8.07
2017-10-03T01:10:13.427Z,7.97
2017-10-03T01:12:40.994Z,7.90
2017-10-03T01:15:08.470Z,7.40
2017-10-03T01:17:35.938Z,7.73
2017-10-03T01:20:04.222Z,7.10
2017-10-03T01:22:32.458Z,7.33
2017-10-03T01:24:59.935Z,7.50
2017-10-03T01:27:27.424Z,7.23
2017-10-03T01:29:54.898Z,6.90
2017-10-03T01:32:22.666Z,7.20
2017-10-03T01:34:50.182Z,6.50
2017-10-03T01:37:17.650Z,5.70
2017-10-03T01:39:45.887Z,6.50
2017-10-03T01:42:13.470Z,5.93
2017-10-03T01:44:41.769Z,6.83
2017-10-03T01:47:10.011Z,7.20
2017-10-03T01:49:37.585Z,7.23
2017-10-03T01:52:05.157Z,6.00
2017-10-03T01:54:33.394Z,6.47
2017-10-03T01:57:00.992Z,5.43
2017-10-03T01:59:30.155Z,5.30
2017-10-03T02:01:57.627Z,6.10
2017-10-03T02:04:25.117Z,6.53
2017-10-03T02:06:53.359Z,6.60
2017-10-03T02:09:20.938Z,6.03
2017-10-03T02:11:49.195Z,5.83
2017-10-03T02:14:16.663Z,5.87
2017-10-03T02:16:44.131Z,5.00
2017-10-03T02:19:12.395Z,5.37
2017-10-03T02:21:41.374Z,5.17
2017-10-03T02:24:08.954Z,5.50
2017-10-03T02:26:36.518Z,5.10
2017-10-03T02:29:04.763Z,4.60
2017-10-03T02:31:32.234Z,5.40
2017-10-03T02:33:59.726Z,5.40
2017-10-03T02:36:27.982Z,5.30
2017-10-03T02:38:55.458Z,5.80
2017-10-03T02:41:23.726Z,5.40
2017-10-03T02:43:51.966Z,3.93
2017-10-03T02:46:19.436Z,4.20
2017-10-03T02:48:46.947Z,4.00
2017-10-03T02:51:14.414Z,4.17
2017-10-03T02:53:41.930Z,4.40
2017-10-03T02:56:10.453Z,4.20
2017-10-03T02:58:37.929Z,4.43
2017-10-03T03:01:05.407Z,3.63
2017-10-03T03:03:32.906Z,3.30
2017-10-03T03:06:00.384Z,3.50
2017-10-03T03:08:27.859Z,3.37
2017-10-03T03:10:55.346Z,3.43
2017-10-03T03:13:22.812Z,3.30
2017-10-03T03:15:50.291Z,3.30
2017-10-03T03:18:18.547Z,2.90
2017-10-03T03:20:46.783Z,3.00
2017-10-03T03:23:14.255Z,2.30
2017-10-03T03:25:41.744Z,3.10
2017-10-03T03:28:10.011Z,2.90
2017-10-03T03:30:38.082Z,3.00
2017-10-03T03:33:05.650Z,5.00
2017-10-03T03:35:33.927Z,3.00
2017-10-03T03:38:01.399Z,2.80
2017-10-03T03:40:29.762Z,3.63
2017-10-03T03:42:57.322Z,4.40
2017-10-03T03:45:24.882Z,3.67
2017-10-03T03:47:53.138Z,4.00
2017-10-03T03:50:20.618Z,3.43
2017-10-03T03:52:48.849Z,4.20
2017-10-03T03:55:16.354Z,3.83
2017-10-03T03:57:44.630Z,3.70
2017-10-03T04:00:12.907Z,3.93
2017-10-03T04:02:41.165Z,4.00
2017-10-03T04:05:08.651Z,3.63
2017-10-03T04:07:36.885Z,4.23
2017-10-03T04:10:04.473Z,5.20
2017-10-03T04:12:32.038Z,4.27
2017-10-03T04:15:00.275Z,5.50
2017-10-03T04:17:27.765Z,4.60
2017-10-03T04:19:55.231Z,4.95
2017-10-03T04:22:23.753Z,5.23
2017-10-03T04:24:51.260Z,4.97
2017-10-03T04:27:18.737Z,4.93
2017-10-03T04:29:46.999Z,5.57
2017-10-03T04:32:15.277Z,5.80
2017-10-03T04:34:43.528Z,5.37
2017-10-03T04:37:11.015Z,6.10
2017-10-03T04:39:39.278Z,6.20
2017-10-03T04:42:06.850Z,6.47
2017-10-03T04:44:35.742Z,6.50
2017-10-03T04:47:03.248Z,6.90
2017-10-03T04:49:30.725Z,6.20
2017-10-03T04:51:58.222Z,6.53
2017-10-03T04:54:26.476Z,6.20
2017-10-03T04:56:53.945Z,6.23
2017-10-03T04:59:21.418Z,6.33
2017-10-03T05:01:49.673Z,6.27
2017-10-03T05:04:17.250Z,6.53
2017-10-03T05:06:45.518Z,6.43
2017-10-03T05:09:13.329Z,6.80
2017-10-03T05:11:40.803Z,6.60
2017-10-03T05:14:08.277Z,6.80
2017-10-03T05:16:36.071Z,6.45
2017-10-03T05:19:04.307Z,5.93
2017-10-03T05:21:31.787Z,5.90
2017-10-03T05:23:59.359Z,5.90
2017-10-03T05:26:26.827Z,6.10
2017-10-03T05:28:55.095Z,5.33
2017-10-03T05:31:22.659Z,5.77
2017-10-03T05:33:50.931Z,5.73
2017-10-03T05:36:19.206Z,7.30
2017-10-03T05:38:46.766Z,7.60
2017-10-03T05:41:14.320Z,8.33
2017-10-03T05:43:42.598Z,7.50
2017-10-03T05:46:10.096Z,7.60
2017-10-03T05:48:37.618Z,7.50
2017-10-03T05:51:05.862Z,6.30
2017-10-03T05:53:33.354Z,6.57
2017-10-03T05:56:00.913Z,6.90
2017-10-03T05:58:28.412Z,8.70
2017-10-03T06:00:55.934Z,7.73
2017-10-03T06:03:24.174Z,6.43
2017-10-03T06:05:51.670Z,7.20
2017-10-03T06:08:20.021Z,7.43
2017-10-03T06:10:47.507Z,6.23
2017-10-03T06:13:15.779Z,6.13
2017-10-03T06:15:43.276Z,7.10
2017-10-03T06:18:10.747Z,7.47
2017-10-03T06:20:38.225Z,8.87
2017-10-03T06:23:05.719Z,8.40
2017-10-03T06:25:33.987Z,8.90
2017-10-03T06:28:01.547Z,7.83
2017-10-03T06:30:29.051Z,8.17
2017-10-03T06:32:56.563Z,9.13
2017-10-03T06:35:24.848Z,17.00
2017-10-03T06:37:53.110Z,8.30
2017-10-03T06:40:21.274Z,6.50
2017-10-03T06:42:48.750Z,5.90
2017-10-03T06:45:17.006Z,5.30
2017-10-03T06:47:44.474Z,5.70
2017-10-03T06:50:12.042Z,6.20
2017-10-03T06:52:39.599Z,10.53
2017-10-03T06:55:07.078Z,6.73
2017-10-03T06:57:35.377Z,3.03
2017-10-03T07:00:02.871Z,3.87
2017-10-03T07:02:30.346Z,2.47
2017-10-03T07:04:57.830Z,1.47
2017-10-03T07:07:26.085Z,1.20
2017-10-03T07:09:53.557Z,0.70
2017-10-03T07:12:21.883Z,0.60
2017-10-03T07:14:49.380Z,0.60
2017-10-03T07:17:16.850Z,0.40
2017-10-03T07:19:45.090Z,0.70
2017-10-03T07:22:12.589Z,0.40
2017-10-03T07:24:41.129Z,0.40
2017-10-03T07:27:08.597Z,0.40
2017-10-03T07:29:36.086Z,0.50
2017-10-03T07:32:04.317Z,0.93
2017-10-03T07:34:31.801Z,0.87
2017-10-03T07:37:00.067Z,0.40
2017-10-03T07:39:27.539Z,0.40
2017-10-03T07:41:55.009Z,0.40
2017-10-03T07:44:23.266Z,0.60
2017-10-03T07:46:50.902Z,0.40
2017-10-03T07:49:18.370Z,0.40
2017-10-03T07:51:45.858Z,0.47
2017-10-03T07:54:14.090Z,0.50
2017-10-03T07:56:41.582Z,0.90
2017-10-03T07:59:09.078Z,0.80
2017-10-03T08:01:36.604Z,0.47
2017-10-03T08:04:04.202Z,0.47
2017-10-03T08:06:31.686Z,0.53
2017-10-03T08:08:59.161Z,0.70
2017-10-03T08:11:26.630Z,0.50
2017-10-03T08:13:54.122Z,0.60
2017-10-03T08:16:21.597Z,0.50
2017-10-03T08:18:49.073Z,0.83
2017-10-03T08:21:16.572Z,0.75
2017-10-03T08:23:44.813Z,0.50
2017-10-03T08:26:13.435Z,0.50
2017-10-03T08:28:42.609Z,0.50
2017-10-03T08:31:10.084Z,0.77
2017-10-03T08:33:38.325Z,0.47
2017-10-03T08:36:05.813Z,0.50
2017-10-03T08:38:33.283Z,0.60
2017-10-03T08:41:01.524Z,0.50
2017-10-03T08:43:29.022Z,0.70
2017-10-03T08:45:57.259Z,0.60
2017-10-03T08:48:24.846Z,0.70
2017-10-03T08:50:52.382Z,1.10
2017-10-03T08:53:19.866Z,0.60
2017-10-03T08:55:48.146Z,0.60
2017-10-03T08:58:16.416Z,1.10
2017-10-03T09:00:43.994Z,1.70
2017-10-03T09:03:12.234Z,0.60
2017-10-03T09:05:39.730Z,0.50
2017-10-03T09:08:07.974Z,0.60
2017-10-03T09:10:36.981Z,0.60
2017-10-03T09:13:05.258Z,0.80
2017-10-03T09:15:32.729Z,1.00
2017-10-03T09:18:00.966Z,1.43
2017-10-03T09:20:28.457Z,0.70
2017-10-03T09:22:56.727Z,0.70
2017-10-03T09:25:24.289Z,0.70
2017-10-03T09:27:52.563Z,0.80
2017-10-03T09:30:20.036Z,0.70
2017-10-03T09:32:48.273Z,0.50
2017-10-03T09:35:15.765Z,0.97
2017-10-03T09:37:44.003Z,1.00
2017-10-03T09:40:11.487Z,0.77
2017-10-03T09:42:39.051Z,0.70
2017-10-03T09:45:06.519Z,1.10
2017-10-03T09:47:34.784Z,1.30
2017-10-03T09:50:03.059Z,1.00
2017-10-03T09:52:31.302Z,1.50
2017-10-03T09:54:58.775Z,1.17
2017-10-03T09:57:26.262Z,1.13
2017-10-03T09:59:54.503Z,1.73
2017-10-03T10:02:21.987Z,0.87
2017-10-03T10:04:50.243Z,1.30
2017-10-03T10:07:17.715Z,1.47
2017-10-03T10:09:47.663Z,1.20
2017-10-03T10:12:15.150Z,1.60
2017-10-03T10:14:42.622Z,1.97
2017-10-03T10:17:10.090Z,1.57
2017-10-03T10:19:37.578Z,1.33
2017-10-03T10:22:05.849Z,2.80
2017-10-03T10:24:34.119Z,1.20
2017-10-03T10:27:01.616Z,1.40
2017-10-03T10:29:29.090Z,1.07
2017-10-03T10:31:56.568Z,0.97
2017-10-03T10:34:24.055Z,1.30
2017-10-03T10:36:52.324Z,1.20
2017-10-03T10:39:19.807Z,0.83
2017-10-03T10:41:48.139Z,1.00
2017-10-03T10:44:15.628Z,0.77
2017-10-03T10:46:43.899Z,1.37
2017-10-03T10:49:11.395Z,0.80
2017-10-03T10:51:38.919Z,0.70
2017-10-03T10:54:07.155Z,0.90
2017-10-03T10:56:34.651Z,0.80
2017-10-03T10:59:02.919Z,0.90
2017-10-03T11:01:30.413Z,0.90
2017-10-03T11:03:57.915Z,0.80
2017-10-03T11:06:25.405Z,0.83
2017-10-03T11:08:52.966Z,0.90
2017-10-03T11:11:21.445Z,0.97
2017-10-03T11:13:50.194Z,0.98
2017-10-03T11:16:17.766Z,1.13
2017-10-03T11:18:45.296Z,1.20
2017-10-03T11:21:12.808Z,1.10
2017-10-03T11:26:44.339Z,1.10
2017-10-03T11:29:11.854Z,0.90
2017-10-03T11:31:40.096Z,1.20
2017-10-03T11:34:07.593Z,0.80
2017-10-03T11:36:35.134Z,0.83
2017-10-03T11:39:04.018Z,0.87
2017-10-03T11:41:31.490Z,0.73
2017-10-03T11:43:59.749Z,0.93
2017-10-03T11:46:27.231Z,1.27
2017-10-03T11:48:55.478Z,0.83
2017-10-03T11:51:22.969Z,1.23
2017-10-03T11:53:51.958Z,0.83
2017-10-03T11:56:21.120Z,1.07
2017-10-03T11:58:48.615Z,1.17
2017-10-03T12:01:16.855Z,1.37
2017-10-03T12:03:44.331Z,1.00
2017-10-03T12:06:11.895Z,1.00
2017-10-03T12:08:40.131Z,1.20
2017-10-03T12:11:07.606Z,1.20
2017-10-03T12:13:35.108Z,1.10
2017-10-03T12:16:02.642Z,1.10
2017-10-03T12:18:31.014Z,1.40
2017-10-03T12:20:58.514Z,1.10
2017-10-03T12:23:25.986Z,2.80
2017-10-03T12:25:53.498Z,2.80
2017-10-03T12:28:22.682Z,1.27
2017-10-03T12:30:50.254Z,1.23
2017-10-03T12:33:18.428Z,1.37
2017-10-03T12:35:45.991Z,1.30
2017-10-03T12:38:14.267Z,1.40
2017-10-03T12:40:41.749Z,1.73
2017-10-03T12:43:09.283Z,3.30
2017-10-03T12:45:37.393Z,1.37
2017-10-03T12:48:04.895Z,1.70
2017-10-03T12:50:33.195Z,1.70
2017-10-03T12:53:01.474Z,1.17
2017-10-03T12:55:29.715Z,1.63
2017-10-03T12:57:57.205Z,1.20
2017-10-03T13:00:25.457Z,1.10
2017-10-03T13:02:53.074Z,1.00
2017-10-03T13:05:20.601Z,1.10
2017-10-03T13:07:48.841Z,1.00
2017-10-03T13:10:16.309Z,0.90
2017-10-03T13:12:43.811Z,1.20
2017-10-03T13:15:12.769Z,0.97
2017-10-03T13:17:40.242Z,0.70
2017-10-03T13:20:08.546Z,1.00
2017-10-03T13:22:36.782Z,0.87
2017-10-03T13:25:04.350Z,1.03
2017-10-03T13:27:31.926Z,1.20
2017-10-03T13:30:00.228Z,0.93
2017-10-03T13:32:27.704Z,1.30
2017-10-03T13:34:55.197Z,0.90
2017-10-03T13:37:22.708Z,1.27
2017-10-03T13:39:50.190Z,1.10
2017-10-03T13:42:17.682Z,1.20
2017-10-03T13:44:45.958Z,3.23
2017-10-03T13:47:14.259Z,1.20
2017-10-03T13:49:42.523Z,1.10
2017-10-03T13:52:10.761Z,0.90
2017-10-03T13:54:38.243Z,1.30
2017-10-03T13:57:05.740Z,1.30
2017-10-03T13:59:33.212Z,1.60
2017-10-03T14:02:00.688Z,1.50
2017-10-03T14:04:28.281Z,1.53
2017-10-03T14:06:56.731Z,1.47
2017-10-03T14:09:24.200Z,1.50
2017-10-03T14:11:51.707Z,1.27
2017-10-03T14:14:19.185Z,1.63
2017-10-03T14:16:46.662Z,1.60
2017-10-03T14:19:14.159Z,1.73
2017-10-03T14:21:42.399Z,2.13
2017-10-03T14:24:09.867Z,1.63
2017-10-03T14:26:37.366Z,1.57
2017-10-03T14:29:04.850Z,1.57
2017-10-03T14:31:32.320Z,1.13
2017-10-03T14:33:59.898Z,1.00
2017-10-03T14:36:27.478Z,1.40
2017-10-03T14:38:55.038Z,2.60
2017-10-03T14:41:23.350Z,1.13
2017-10-03T14:43:50.877Z,1.07
2017-10-03T14:46:19.238Z,1.17
2017-10-03T14:48:46.730Z,1.57
2017-10-03T14:51:14.994Z,1.20
2017-10-03T14:53:43.268Z,1.10
2017-10-03T14:56:11.521Z,1.07
2017-10-03T14:58:39.111Z,1.40
2017-10-03T15:01:07.357Z,1.37
2017-10-03T15:03:34.856Z,0.90
2017-10-03T15:06:02.395Z,0.90
2017-10-03T15:08:30.695Z,1.50
2017-10-03T15:10:59.718Z,1.30
2017-10-03T15:13:28.555Z,1.17
2017-10-03T15:15:56.021Z,1.10
2017-10-03T15:18:24.382Z,1.43
2017-10-03T15:20:51.854Z,1.10
2017-10-03T15:23:20.122Z,1.17
2017-10-03T15:25:47.625Z,1.13
2017-10-03T15:28:15.148Z,1.23
2017-10-03T15:30:43.386Z,1.10
2017-10-03T15:33:10.881Z,1.20
2017-10-03T15:35:39.138Z,2.37
2017-10-03T15:38:06.616Z,1.50
2017-10-03T15:40:34.909Z,1.30
2017-10-03T15:43:02.390Z,1.30
2017-10-03T15:45:29.871Z,1.40
2017-10-03T15:47:57.370Z,1.60
2017-10-03T15:50:25.602Z,1.47
2017-10-03T15:52:53.076Z,1.50
2017-10-03T15:55:20.654Z,1.80
2017-10-03T15:57:48.219Z,1.87
2017-10-03T16:00:16.464Z,1.90
2017-10-03T16:02:43.966Z,1.80
2017-10-03T16:05:12.594Z,2.20
2017-10-03T16:07:40.066Z,2.13
2017-10-03T16:10:07.559Z,2.47
2017-10-03T16:12:35.814Z,2.53
2017-10-03T16:15:04.791Z,2.70
2017-10-03T16:17:32.287Z,2.97
2017-10-03T16:20:00.525Z,3.20
2017-10-03T16:22:28.011Z,3.33
2017-10-03T16:24:56.268Z,3.10
2017-10-03T16:27:23.751Z,3.30
2017-10-03T16:29:52.271Z,3.90
2017-10-03T16:32:19.790Z,3.13
2017-10-03T16:34:48.034Z,3.60
2017-10-03T16:37:15.511Z,3.13
2017-10-03T16:39:43.766Z,2.80
2017-10-03T16:42:11.234Z,3.10
2017-10-03T16:44:38.712Z,3.50
2017-10-03T16:47:06.202Z,3.60
2017-10-03T16:49:33.674Z,3.83
2017-10-03T16:52:02.290Z,3.93
2017-10-03T16:54:30.711Z,3.77
2017-10-03T16:56:58.190Z,3.90
2017-10-03T16:59:26.526Z,4.83
2017-10-03T17:01:54.025Z,4.90
2017-10-03T17:04:21.495Z,6.17
2017-10-03T17:06:48.972Z,7.10
2017-10-03T17:09:16.604Z,4.17
2017-10-03T17:11:44.107Z,4.70
2017-10-03T17:14:11.578Z,4.87
2017-10-03T17:16:39.844Z,5.33
2017-10-03T17:19:07.703Z,3.90
2017-10-03T17:21:35.187Z,4.23
2017-10-03T17:24:03.521Z,4.50
2017-10-03T17:26:32.285Z,13.33
2017-10-03T17:28:59.758Z,6.37
2017-10-03T17:31:27.255Z,6.77
2017-10-03T17:33:55.495Z,5.17
2017-10-03T17:36:22.970Z,6.30
2017-10-03T17:38:50.468Z,5.50
2017-10-03T17:41:18.722Z,12.27
2017-10-03T17:43:46.288Z,5.60
2017-10-03T17:46:13.850Z,4.13
2017-10-03T17:48:41.410Z,4.87
2017-10-03T17:51:09.658Z,4.87
2017-10-03T17:53:37.152Z,4.47
2017-10-03T17:56:05.423Z,4.40
2017-10-03T17:58:33.675Z,4.30
2017-10-03T18:01:01.256Z,4.90
2017-10-03T18:03:28.729Z,6.63
2017-10-03T18:05:56.970Z,5.67
2017-10-03T18:08:24.472Z,8.30
2017-10-03T18:10:51.955Z,5.37
2017-10-03T18:13:19.475Z,5.30
2017-10-03T18:15:47.740Z,4.80
2017-10-03T18:18:15.979Z,3.80
2017-10-03T18:20:43.472Z,3.90
2017-10-03T18:23:10.965Z,4.00
2017-10-03T18:25:38.495Z,4.30
2017-10-03T18:28:06.823Z,4.20
2017-10-03T18:30:34.351Z,4.60
2017-10-03T18:33:01.827Z,4.47
2017-10-03T18:35:29.302Z,4.30
2017-10-03T18:37:57.016Z,5.20
2017-10-03T18:40:25.267Z,5.10
2017-10-03T18:42:52.754Z,4.93
2017-10-03T18:45:21.015Z,5.97
2017-10-03T18:47:49.292Z,8.83
2017-10-03T18:50:16.774Z,4.60
2017-10-03T18:52:44.310Z,4.83
2017-10-03T18:55:12.650Z,4.90
2017-10-03T18:57:40.131Z,5.23
2017-10-03T19:00:07.720Z,4.67
2017-10-03T19:02:36.167Z,5.10
2017-10-03T19:05:03.648Z,5.93
2017-10-03T19:07:31.907Z,4.47
2017-10-03T19:10:00.159Z,4.40
2017-10-03T19:12:27.639Z,4.20
2017-10-03T19:14:55.133Z,4.73
2017-10-03T19:17:23.371Z,5.13
2017-10-03T19:19:52.369Z,4.70
2017-10-03T19:22:19.883Z,5.40
2017-10-03T19:24:48.037Z,5.40
2017-10-03T19:27:15.528Z,5.30
2017-10-03T19:29:43.030Z,19.30
2017-10-03T19:32:10.918Z,5.00
2017-10-03T19:34:39.159Z,4.27
2017-10-03T19:37:06.654Z,4.50
2017-10-03T19:39:34.904Z,4.50
2017-10-03T19:42:03.307Z,4.80
2017-10-03T19:44:31.655Z,4.73
2017-10-03T19:46:59.478Z,5.10
2017-10-03T19:49:26.970Z,9.70
2017-10-03T19:51:54.468Z,6.30
2017-10-03T19:54:22.712Z,7.30
2017-10-03T19:56:50.206Z,4.67
2017-10-03T19:59:18.480Z,6.60
2017-10-03T20:01:46.866Z,5.13
2017-10-03T20:04:14.359Z,5.30
2017-10-03T20:06:42.055Z,5.13
2017-10-03T20:09:09.556Z,5.47
2017-10-03T20:11:38.281Z,4.97
2017-10-03T20:14:05.808Z,5.27
2017-10-03T20:16:33.331Z,4.93
2017-10-03T20:19:01.607Z,7.27
2017-10-03T20:21:29.995Z,5.30
2017-10-03T20:23:58.256Z,5.10
2017-10-03T20:26:25.744Z,5.40
2017-10-03T20:28:53.253Z,4.93
2017-10-03T20:31:20.727Z,5.67
2017-10-03T20:33:48.194Z,5.70
2017-10-03T20:36:16.467Z,6.30
2017-10-03T20:38:43.959Z,5.70
2017-10-03T20:41:11.459Z,5.50
2017-10-03T20:43:38.954Z,5.63
2017-10-03T20:46:07.191Z,5.77
2017-10-03T20:48:34.663Z,5.63
2017-10-03T20:51:02.151Z,5.70
2017-10-03T20:53:30.414Z,5.17
2017-10-03T20:55:58.696Z,5.90
2017-10-03T20:58:26.966Z,5.73
2017-10-03T21:00:55.202Z,5.33
2017-10-03T21:03:22.702Z,6.33
2017-10-03T21:05:50.982Z,6.50
2017-10-03T21:08:19.229Z,5.90
2017-10-03T21:10:46.708Z,7.30
2017-10-03T21:13:14.269Z,6.60
2017-10-03T21:15:41.842Z,7.10
2017-10-03T21:18:09.506Z,7.70
2017-10-03T21:20:37.766Z,6.23
2017-10-03T21:23:05.230Z,6.43
2017-10-03T21:25:33.471Z,5.30
2017-10-03T21:28:02.737Z,6.30
2017-10-03T21:30:30.764Z,5.97
2017-10-03T21:32:58.580Z,6.07
2017-10-03T21:35:26.339Z,4.83
2017-10-03T21:37:54.105Z,6.37
2017-10-03T21:40:21.810Z,5.30
2017-10-03T21:43:13.026Z,4.87
2017-10-03T21:45:40.511Z,5.33
2017-10-03T21:48:08.745Z,4.90
2017-10-03T21:50:36.236Z,4.73
2017-10-03T21:53:04.469Z,5.30
2017-10-03T21:55:31.941Z,4.93
2017-10-03T21:57:59.531Z,5.13
2017-10-03T22:00:27.787Z,5.67
2017-10-03T22:02:55.259Z,5.00
2017-10-03T22:05:22.751Z,4.37
2017-10-03T22:07:50.277Z,4.93
2017-10-03T22:10:17.843Z,5.10
2017-10-03T22:12:46.262Z,4.50
2017-10-03T22:15:13.740Z,5.07
2017-10-03T22:17:41.278Z,4.80
2017-10-03T22:20:08.802Z,5.00
2017-10-03T22:22:37.036Z,4.87
2017-10-03T22:25:04.530Z,6.70
2017-10-03T22:27:32.782Z,5.10
2017-10-03T22:30:00.256Z,5.07
2017-10-03T22:32:27.732Z,5.07
2017-10-03T22:34:56.018Z,4.30
2017-10-03T22:37:23.498Z,5.07
2017-10-03T22:39:51.020Z,4.93
2017-10-03T22:42:19.296Z,4.80
2017-10-03T22:44:47.696Z,5.00
2017-10-03T22:47:15.174Z,4.90
2017-10-03T22:49:42.659Z,5.00
2017-10-03T22:52:15.731Z,5.80
2017-10-03T22:54:43.215Z,5.70
2017-10-03T22:57:10.799Z,4.50
2017-10-03T22:59:39.031Z,5.50
2017-10-03T23:02:06.620Z,5.20
2017-10-03T23:04:34.083Z,5.77
2017-10-03T23:07:01.641Z,4.70
2017-10-03T23:09:29.215Z,6.33
2017-10-03T23:11:57.448Z,5.60
2017-10-03T23:14:24.911Z,4.90
2017-10-03T23:16:52.398Z,5.33
2017-10-03T23:19:19.867Z,5.87
2017-10-03T23:21:48.131Z,5.70
2017-10-03T23:24:15.614Z,5.47
2017-10-03T23:26:43.574Z,5.80
2017-10-03T23:29:11.806Z,5.37
2017-10-03T23:31:39.293Z,6.20
2017-10-03T23:34:07.326Z,5.20
2017-10-03T23:36:34.798Z,5.00
2017-10-03T23:39:02.289Z,5.63
2017-10-03T23:41:30.527Z,5.30
2017-10-03T23:43:57.996Z,6.27
2017-10-03T23:46:25.482Z,5.77
2017-10-03T23:48:53.749Z,5.50
2017-10-03T23:51:21.223Z,6.30
2017-10-03T23:53:49.482Z,5.20
2017-10-03T23:56:16.951Z,5.80
2017-10-03T23:58:44.713Z,5.80
